sensor_id;sensor_type;location;lat;lon;timestamp;temperature;humidity
62589;DHT22;58504;48.770;9.148;2023-02-28T00:01:04;21.00;44.20
62589;DHT22;58504;48.770;9.148;2023-02-28T00:03:31;20.90;44.40
62589;DHT22;58504;48.770;9.148;2023-02-28T00:06:00;20.90;44.50
62589;DHT22;58504;48.770;9.148;2023-02-28T00:08:27;20.80;44.60
62589;DHT22;58504;48.770;9.148;2023-02-28T00:10:54;20.70;44.60
62589;DHT22;58504;48.770;9.148;2023-02-28T00:13:22;20.70;44.80
62589;DHT22;58504;48.770;9.148;2023-02-28T00:15:59;20.60;45.00
62589;DHT22;58504;48.770;9.148;2023-02-28T00:18:26;20.50;45.10
62589;DHT22;58504;48.770;9.148;2023-02-28T00:20:53;20.40;45.20
62589;DHT22;58504;48.770;9.148;2023-02-28T00:23:20;20.40;45.40
62589;DHT22;58504;48.770;9.148;2023-02-28T00:25:47;20.30;45.50
62589;DHT22;58504;48.770;9.148;2023-02-28T00:28:14;20.20;45.70
62589;DHT22;58504;48.770;9.148;2023-02-28T00:30:42;20.20;45.90
62589;DHT22;58504;48.770;9.148;2023-02-28T00:33:10;20.10;46.00
62589;DHT22;58504;48.770;9.148;2023-02-28T00:35:36;20.00;46.00
62589;DHT22;58504;48.770;9.148;2023-02-28T00:38:03;20.00;46.20
62589;DHT22;58504;48.770;9.148;2023-02-28T00:40:31;19.90;46.10
62589;DHT22;58504;48.770;9.148;2023-02-28T00:42:58;19.90;46.20
62589;DHT22;58504;48.770;9.148;2023-02-28T00:45:24;19.90;46.30
62589;DHT22;58504;48.770;9.148;2023-02-28T00:47:52;19.90;46.40
62589;DHT22;58504;48.770;9.148;2023-02-28T00:50:20;19.80;46.40
62589;DHT22;58504;48.770;9.148;2023-02-28T00:52:47;19.80;46.40
62589;DHT22;58504;48.770;9.148;2023-02-28T00:55:14;19.90;46.50
62589;DHT22;58504;48.770;9.148;2023-02-28T00:57:41;19.70;46.40
62589;DHT22;58504;48.770;9.148;2023-02-28T01:00:10;19.70;46.50
62589;DHT22;58504;48.770;9.148;2023-02-28T01:02:37;19.70;46.60
62589;DHT22;58504;48.770;9.148;2023-02-28T01:05:06;19.70;46.60
62589;DHT22;58504;48.770;9.148;2023-02-28T01:07:33;19.60;46.60
62589;DHT22;58504;48.770;9.148;2023-02-28T01:09:59;19.60;46.60
62589;DHT22;58504;48.770;9.148;2023-02-28T01:12:26;19.60;46.70
62589;DHT22;58504;48.770;9.148;2023-02-28T01:14:53;19.50;46.70
62589;DHT22;58504;48.770;9.148;2023-02-28T01:17:20;19.70;46.90
62589;DHT22;58504;48.770;9.148;2023-02-28T01:19:46;19.50;46.80
62589;DHT22;58504;48.770;9.148;2023-02-28T01:22:14;19.50;46.90
62589;DHT22;58504;48.770;9.148;2023-02-28T01:24:41;19.40;46.90
62589;DHT22;58504;48.770;9.148;2023-02-28T01:27:08;19.50;47.10
62589;DHT22;58504;48.770;9.148;2023-02-28T01:29:35;19.40;47.10
62589;DHT22;58504;48.770;9.148;2023-02-28T01:32:02;19.30;47.10
62589;DHT22;58504;48.770;9.148;2023-02-28T01:34:28;19.30;47.10
62589;DHT22;58504;48.770;9.148;2023-02-28T01:36:55;19.30;47.20
62589;DHT22;58504;48.770;9.148;2023-02-28T01:39:25;19.30;47.30
62589;DHT22;58504;48.770;9.148;2023-02-28T01:41:52;19.20;47.30
62589;DHT22;58504;48.770;9.148;2023-02-28T01:44:55;19.20;47.40
62589;DHT22;58504;48.770;9.148;2023-02-28T01:47:25;19.20;47.50
62589;DHT22;58504;48.770;9.148;2023-02-28T01:49:53;19.10;47.50
62589;DHT22;58504;48.770;9.148;2023-02-28T01:52:21;19.10;47.50
62589;DHT22;58504;48.770;9.148;2023-02-28T01:54:54;19.10;47.60
62589;DHT22;58504;48.770;9.148;2023-02-28T01:57:25;19.10;47.60
62589;DHT22;58504;48.770;9.148;2023-02-28T01:59:54;19.00;47.60
62589;DHT22;58504;48.770;9.148;2023-02-28T02:02:25;19.00;47.60
62589;DHT22;58504;48.770;9.148;2023-02-28T02:04:55;19.00;47.70
62589;DHT22;58504;48.770;9.148;2023-02-28T02:07:23;19.10;47.90
62589;DHT22;58504;48.770;9.148;2023-02-28T02:10:00;18.90;47.70
62589;DHT22;58504;48.770;9.148;2023-02-28T02:12:36;19.00;47.90
62589;DHT22;58504;48.770;9.148;2023-02-28T02:15:11;18.90;47.80
62589;DHT22;58504;48.770;9.148;2023-02-28T02:17:40;18.90;47.90
62589;DHT22;58504;48.770;9.148;2023-02-28T02:23:38;18.90;48.00
62589;DHT22;58504;48.770;9.148;2023-02-28T02:35:11;18.80;48.00
62589;DHT22;58504;48.770;9.148;2023-02-28T02:37:44;18.80;48.10
62589;DHT22;58504;48.770;9.148;2023-02-28T02:40:17;18.70;48.10
62589;DHT22;58504;48.770;9.148;2023-02-28T02:42:50;18.70;48.10
62589;DHT22;58504;48.770;9.148;2023-02-28T02:45:21;18.70;48.10
62589;DHT22;58504;48.770;9.148;2023-02-28T02:47:50;18.70;48.10
62589;DHT22;58504;48.770;9.148;2023-02-28T02:50:22;18.70;48.20
62589;DHT22;58504;48.770;9.148;2023-02-28T02:52:53;18.70;48.00
62589;DHT22;58504;48.770;9.148;2023-02-28T02:55:22;18.60;48.00
62589;DHT22;58504;48.770;9.148;2023-02-28T02:57:52;18.60;47.90
62589;DHT22;58504;48.770;9.148;2023-02-28T03:00:26;18.60;47.90
62589;DHT22;58504;48.770;9.148;2023-02-28T03:02:54;18.60;48.00
62589;DHT22;58504;48.770;9.148;2023-02-28T03:05:26;18.60;48.00
62589;DHT22;58504;48.770;9.148;2023-02-28T03:07:54;18.50;48.00
62589;DHT22;58504;48.770;9.148;2023-02-28T03:10:32;18.50;48.10
62589;DHT22;58504;48.770;9.148;2023-02-28T03:13:09;18.50;48.20
62589;DHT22;58504;48.770;9.148;2023-02-28T03:15:46;18.40;48.10
62589;DHT22;58504;48.770;9.148;2023-02-28T03:18:22;18.40;48.20
62589;DHT22;58504;48.770;9.148;2023-02-28T03:20:57;18.50;48.10
62589;DHT22;58504;48.770;9.148;2023-02-28T03:23:32;18.40;48.10
62589;DHT22;58504;48.770;9.148;2023-02-28T03:26:04;18.40;48.20
62589;DHT22;58504;48.770;9.148;2023-02-28T03:28:37;18.40;48.30
62589;DHT22;58504;48.770;9.148;2023-02-28T03:31:12;18.40;48.30
62589;DHT22;58504;48.770;9.148;2023-02-28T03:33:45;18.40;48.40
62589;DHT22;58504;48.770;9.148;2023-02-28T03:36:24;18.40;48.40
62589;DHT22;58504;48.770;9.148;2023-02-28T03:38:56;18.40;48.40
62589;DHT22;58504;48.770;9.148;2023-02-28T03:41:31;18.30;48.40
62589;DHT22;58504;48.770;9.148;2023-02-28T03:44:02;18.30;48.40
62589;DHT22;58504;48.770;9.148;2023-02-28T03:46:33;18.30;48.50
62589;DHT22;58504;48.770;9.148;2023-02-28T03:49:03;18.30;48.50
62589;DHT22;58504;48.770;9.148;2023-02-28T03:51:34;18.30;48.50
62589;DHT22;58504;48.770;9.148;2023-02-28T03:54:06;18.20;48.40
62589;DHT22;58504;48.770;9.148;2023-02-28T03:56:37;18.20;49.00
62589;DHT22;58504;48.770;9.148;2023-02-28T03:59:07;18.20;48.50
62589;DHT22;58504;48.770;9.148;2023-02-28T04:01:38;18.20;48.60
62589;DHT22;58504;48.770;9.148;2023-02-28T04:04:07;18.20;48.60
62589;DHT22;58504;48.770;9.148;2023-02-28T04:06:35;18.20;48.50
62589;DHT22;58504;48.770;9.148;2023-02-28T04:09:03;18.20;48.60
62589;DHT22;58504;48.770;9.148;2023-02-28T04:11:33;18.20;48.60
62589;DHT22;58504;48.770;9.148;2023-02-28T04:14:00;18.20;48.60
62589;DHT22;58504;48.770;9.148;2023-02-28T04:16:27;18.20;48.60
62589;DHT22;58504;48.770;9.148;2023-02-28T04:18:54;18.10;48.50
62589;DHT22;58504;48.770;9.148;2023-02-28T04:21:27;18.20;48.60
62589;DHT22;58504;48.770;9.148;2023-02-28T04:23:55;18.10;48.60
62589;DHT22;58504;48.770;9.148;2023-02-28T04:26:27;18.10;49.10
62589;DHT22;58504;48.770;9.148;2023-02-28T04:28:55;18.10;48.60
62589;DHT22;58504;48.770;9.148;2023-02-28T04:31:22;18.20;48.80
62589;DHT22;58504;48.770;9.148;2023-02-28T04:33:48;18.30;48.70
62589;DHT22;58504;48.770;9.148;2023-02-28T04:36:15;18.60;48.50
62589;DHT22;58504;48.770;9.148;2023-02-28T04:38:43;18.90;47.90
62589;DHT22;58504;48.770;9.148;2023-02-28T04:41:12;19.30;47.10
62589;DHT22;58504;48.770;9.148;2023-02-28T04:43:39;19.60;46.30
62589;DHT22;58504;48.770;9.148;2023-02-28T04:46:06;20.00;45.60
62589;DHT22;58504;48.770;9.148;2023-02-28T04:48:35;20.30;45.10
62589;DHT22;58504;48.770;9.148;2023-02-28T04:51:02;20.60;44.50
62589;DHT22;58504;48.770;9.148;2023-02-28T04:53:30;20.80;44.10
62589;DHT22;58504;48.770;9.148;2023-02-28T04:55:57;21.00;43.80
62589;DHT22;58504;48.770;9.148;2023-02-28T04:58:26;21.10;43.50
62589;DHT22;58504;48.770;9.148;2023-02-28T05:00:54;21.10;43.30
62589;DHT22;58504;48.770;9.148;2023-02-28T05:03:21;21.20;43.10
62589;DHT22;58504;48.770;9.148;2023-02-28T05:05:48;21.30;43.00
62589;DHT22;58504;48.770;9.148;2023-02-28T05:08:14;21.40;42.90
62589;DHT22;58504;48.770;9.148;2023-02-28T05:10:41;21.40;42.80
62589;DHT22;58504;48.770;9.148;2023-02-28T05:13:10;21.50;42.60
62589;DHT22;58504;48.770;9.148;2023-02-28T05:15:39;21.60;42.50
62589;DHT22;58504;48.770;9.148;2023-02-28T05:18:07;21.70;42.40
62589;DHT22;58504;48.770;9.148;2023-02-28T05:20:34;21.70;42.20
62589;DHT22;58504;48.770;9.148;2023-02-28T05:23:01;21.70;42.10
62589;DHT22;58504;48.770;9.148;2023-02-28T05:25:28;21.80;42.10
62589;DHT22;58504;48.770;9.148;2023-02-28T05:27:55;21.90;42.10
62589;DHT22;58504;48.770;9.148;2023-02-28T05:30:22;21.90;42.00
62589;DHT22;58504;48.770;9.148;2023-02-28T05:32:51;21.90;41.90
62589;DHT22;58504;48.770;9.148;2023-02-28T05:35:18;21.90;41.80
62589;DHT22;58504;48.770;9.148;2023-02-28T05:37:44;22.00;41.80
62589;DHT22;58504;48.770;9.148;2023-02-28T05:40:12;22.00;41.70
62589;DHT22;58504;48.770;9.148;2023-02-28T05:42:39;22.00;41.60
62589;DHT22;58504;48.770;9.148;2023-02-28T05:45:06;22.10;41.70
62589;DHT22;58504;48.770;9.148;2023-02-28T05:47:34;22.10;41.50
62589;DHT22;58504;48.770;9.148;2023-02-28T05:50:02;22.10;41.50
62589;DHT22;58504;48.770;9.148;2023-02-28T05:52:29;22.20;41.50
62589;DHT22;58504;48.770;9.148;2023-02-28T05:54:56;22.20;41.70
62589;DHT22;58504;48.770;9.148;2023-02-28T05:57:23;22.20;41.40
62589;DHT22;58504;48.770;9.148;2023-02-28T05:59:50;22.30;41.40
62589;DHT22;58504;48.770;9.148;2023-02-28T06:02:17;22.30;41.40
62589;DHT22;58504;48.770;9.148;2023-02-28T06:04:45;22.30;41.40
62589;DHT22;58504;48.770;9.148;2023-02-28T06:07:13;22.30;41.30
62589;DHT22;58504;48.770;9.148;2023-02-28T06:09:40;22.30;41.20
62589;DHT22;58504;48.770;9.148;2023-02-28T06:12:07;22.40;41.30
62589;DHT22;58504;48.770;9.148;2023-02-28T06:14:35;22.40;41.20
62589;DHT22;58504;48.770;9.148;2023-02-28T06:17:03;22.40;41.20
62589;DHT22;58504;48.770;9.148;2023-02-28T06:19:29;22.40;41.30
62589;DHT22;58504;48.770;9.148;2023-02-28T06:21:57;22.40;42.00
62589;DHT22;58504;48.770;9.148;2023-02-28T06:24:27;22.40;41.50
62589;DHT22;58504;48.770;9.148;2023-02-28T06:26:54;22.50;41.70
62589;DHT22;58504;48.770;9.148;2023-02-28T06:29:21;22.50;41.70
62589;DHT22;58504;48.770;9.148;2023-02-28T06:31:48;22.50;41.80
62589;DHT22;58504;48.770;9.148;2023-02-28T06:34:16;22.50;41.70
62589;DHT22;58504;48.770;9.148;2023-02-28T06:36:43;22.60;41.80
62589;DHT22;58504;48.770;9.148;2023-02-28T06:39:10;22.60;41.80
62589;DHT22;58504;48.770;9.148;2023-02-28T06:41:38;22.60;41.80
62589;DHT22;58504;48.770;9.148;2023-02-28T06:44:08;22.60;41.80
62589;DHT22;58504;48.770;9.148;2023-02-28T06:46:38;22.60;41.80
62589;DHT22;58504;48.770;9.148;2023-02-28T06:49:05;22.60;41.80
62589;DHT22;58504;48.770;9.148;2023-02-28T06:51:34;22.70;41.90
62589;DHT22;58504;48.770;9.148;2023-02-28T06:54:01;22.60;41.80
62589;DHT22;58504;48.770;9.148;2023-02-28T06:56:28;22.70;42.00
62589;DHT22;58504;48.770;9.148;2023-02-28T06:58:56;22.70;41.90
62589;DHT22;58504;48.770;9.148;2023-02-28T07:01:23;22.70;41.90
62589;DHT22;58504;48.770;9.148;2023-02-28T07:03:50;22.70;41.90
62589;DHT22;58504;48.770;9.148;2023-02-28T07:06:17;22.70;41.80
62589;DHT22;58504;48.770;9.148;2023-02-28T07:08:45;22.70;41.90
62589;DHT22;58504;48.770;9.148;2023-02-28T07:11:11;22.70;41.90
62589;DHT22;58504;48.770;9.148;2023-02-28T07:13:38;22.70;41.80
62589;DHT22;58504;48.770;9.148;2023-02-28T07:16:09;22.70;41.90
62589;DHT22;58504;48.770;9.148;2023-02-28T07:18:37;22.80;41.80
62589;DHT22;58504;48.770;9.148;2023-02-28T07:21:04;22.70;41.70
62589;DHT22;58504;48.770;9.148;2023-02-28T07:23:32;22.80;41.90
62589;DHT22;58504;48.770;9.148;2023-02-28T07:25:59;22.80;41.80
62589;DHT22;58504;48.770;9.148;2023-02-28T07:28:26;22.80;41.80
62589;DHT22;58504;48.770;9.148;2023-02-28T07:30:53;22.90;41.90
62589;DHT22;58504;48.770;9.148;2023-02-28T07:33:21;22.80;41.80
62589;DHT22;58504;48.770;9.148;2023-02-28T07:35:49;23.00;42.00
62589;DHT22;58504;48.770;9.148;2023-02-28T07:38:16;22.90;41.80
62589;DHT22;58504;48.770;9.148;2023-02-28T07:40:42;22.90;41.80
62589;DHT22;58504;48.770;9.148;2023-02-28T07:43:09;22.90;41.80
62589;DHT22;58504;48.770;9.148;2023-02-28T07:45:36;22.90;41.70
62589;DHT22;58504;48.770;9.148;2023-02-28T07:48:03;22.90;41.70
62589;DHT22;58504;48.770;9.148;2023-02-28T07:50:31;22.90;41.70
62589;DHT22;58504;48.770;9.148;2023-02-28T07:52:58;22.90;41.70
62589;DHT22;58504;48.770;9.148;2023-02-28T07:55:24;22.90;41.70
62589;DHT22;58504;48.770;9.148;2023-02-28T07:57:51;22.90;41.70
62589;DHT22;58504;48.770;9.148;2023-02-28T08:00:18;23.00;41.80
62589;DHT22;58504;48.770;9.148;2023-02-28T08:02:46;23.00;41.80
62589;DHT22;58504;48.770;9.148;2023-02-28T08:05:12;23.00;41.80
62589;DHT22;58504;48.770;9.148;2023-02-28T08:07:40;23.00;41.90
62589;DHT22;58504;48.770;9.148;2023-02-28T08:10:08;23.00;41.80
62589;DHT22;58504;48.770;9.148;2023-02-28T08:12:35;23.00;41.90
62589;DHT22;58504;48.770;9.148;2023-02-28T08:15:02;23.10;42.40
62589;DHT22;58504;48.770;9.148;2023-02-28T08:17:29;23.10;41.60
62589;DHT22;58504;48.770;9.148;2023-02-28T08:19:56;23.00;42.10
62589;DHT22;58504;48.770;9.148;2023-02-28T08:22:23;23.00;42.30
62589;DHT22;58504;48.770;9.148;2023-02-28T08:24:51;22.80;42.60
62589;DHT22;58504;48.770;9.148;2023-02-28T08:27:17;22.70;42.90
62589;DHT22;58504;48.770;9.148;2023-02-28T08:29:44;22.60;43.20
62589;DHT22;58504;48.770;9.148;2023-02-28T08:32:11;22.60;43.10
62589;DHT22;58504;48.770;9.148;2023-02-28T08:34:39;22.80;43.00
62589;DHT22;58504;48.770;9.148;2023-02-28T08:37:06;23.00;42.90
62589;DHT22;58504;48.770;9.148;2023-02-28T08:39:34;23.30;42.60
62589;DHT22;58504;48.770;9.148;2023-02-28T08:42:03;23.60;41.90
62589;DHT22;58504;48.770;9.148;2023-02-28T08:44:30;23.90;41.40
62589;DHT22;58504;48.770;9.148;2023-02-28T08:46:56;24.00;41.00
62589;DHT22;58504;48.770;9.148;2023-02-28T08:49:23;24.20;40.70
62589;DHT22;58504;48.770;9.148;2023-02-28T08:51:50;24.20;40.50
62589;DHT22;58504;48.770;9.148;2023-02-28T08:54:16;24.20;40.30
62589;DHT22;58504;48.770;9.148;2023-02-28T08:56:45;24.20;40.10
62589;DHT22;58504;48.770;9.148;2023-02-28T08:59:13;24.20;40.10
62589;DHT22;58504;48.770;9.148;2023-02-28T09:01:40;24.20;40.10
62589;DHT22;58504;48.770;9.148;2023-02-28T09:04:09;24.20;40.40
62589;DHT22;58504;48.770;9.148;2023-02-28T09:06:37;24.20;40.90
62589;DHT22;58504;48.770;9.148;2023-02-28T09:09:04;24.20;40.90
62589;DHT22;58504;48.770;9.148;2023-02-28T09:11:33;24.30;41.40
62589;DHT22;58504;48.770;9.148;2023-02-28T09:14:01;24.40;41.20
62589;DHT22;58504;48.770;9.148;2023-02-28T09:16:31;24.50;41.60
62589;DHT22;58504;48.770;9.148;2023-02-28T09:18:57;24.50;41.40
62589;DHT22;58504;48.770;9.148;2023-02-28T09:21:24;24.50;41.40
62589;DHT22;58504;48.770;9.148;2023-02-28T09:23:51;24.60;41.50
62589;DHT22;58504;48.770;9.148;2023-02-28T09:26:19;24.60;41.40
62589;DHT22;58504;48.770;9.148;2023-02-28T09:28:48;24.70;41.40
62589;DHT22;58504;48.770;9.148;2023-02-28T09:31:18;24.80;41.40
62589;DHT22;58504;48.770;9.148;2023-02-28T09:33:48;24.80;41.30
62589;DHT22;58504;48.770;9.148;2023-02-28T09:36:16;24.80;41.20
62589;DHT22;58504;48.770;9.148;2023-02-28T09:38:43;24.90;41.20
62589;DHT22;58504;48.770;9.148;2023-02-28T09:41:14;24.90;41.20
62589;DHT22;58504;48.770;9.148;2023-02-28T09:43:45;24.90;41.70
62589;DHT22;58504;48.770;9.148;2023-02-28T09:46:23;24.90;41.10
62589;DHT22;58504;48.770;9.148;2023-02-28T09:48:53;24.90;41.00
62589;DHT22;58504;48.770;9.148;2023-02-28T09:51:35;24.90;41.00
62589;DHT22;58504;48.770;9.148;2023-02-28T09:54:02;24.90;41.00
62589;DHT22;58504;48.770;9.148;2023-02-28T09:56:33;24.90;40.90
62589;DHT22;58504;48.770;9.148;2023-02-28T09:59:09;24.90;41.00
62589;DHT22;58504;48.770;9.148;2023-02-28T10:01:42;24.90;41.00
62589;DHT22;58504;48.770;9.148;2023-02-28T10:04:16;24.90;41.00
62589;DHT22;58504;48.770;9.148;2023-02-28T10:06:46;24.90;41.20
62589;DHT22;58504;48.770;9.148;2023-02-28T10:09:17;24.90;41.20
62589;DHT22;58504;48.770;9.148;2023-02-28T10:11:49;24.90;41.30
62589;DHT22;58504;48.770;9.148;2023-02-28T10:14:18;24.90;41.10
62589;DHT22;58504;48.770;9.148;2023-02-28T10:16:48;24.90;41.30
62589;DHT22;58504;48.770;9.148;2023-02-28T10:19:22;25.00;41.30
62589;DHT22;58504;48.770;9.148;2023-02-28T10:21:56;25.00;41.00
62589;DHT22;58504;48.770;9.148;2023-02-28T10:24:27;25.00;40.80
62589;DHT22;58504;48.770;9.148;2023-02-28T10:26:59;25.10;40.90
62589;DHT22;58504;48.770;9.148;2023-02-28T10:29:27;25.10;40.60
62589;DHT22;58504;48.770;9.148;2023-02-28T10:31:55;25.10;40.70
62589;DHT22;58504;48.770;9.148;2023-02-28T10:34:24;25.10;40.60
62589;DHT22;58504;48.770;9.148;2023-02-28T10:36:51;25.10;40.50
62589;DHT22;58504;48.770;9.148;2023-02-28T10:39:38;25.20;40.40
62589;DHT22;58504;48.770;9.148;2023-02-28T10:42:21;25.20;40.30
62589;DHT22;58504;48.770;9.148;2023-02-28T10:45:05;25.30;39.90
62589;DHT22;58504;48.770;9.148;2023-02-28T10:47:33;25.20;39.80
62589;DHT22;58504;48.770;9.148;2023-02-28T10:50:02;25.20;39.90
62589;DHT22;58504;48.770;9.148;2023-02-28T10:52:37;25.10;40.00
62589;DHT22;58504;48.770;9.148;2023-02-28T10:55:20;25.10;40.00
62589;DHT22;58504;48.770;9.148;2023-02-28T10:57:47;25.10;40.00
62589;DHT22;58504;48.770;9.148;2023-02-28T11:00:17;25.10;40.00
62589;DHT22;58504;48.770;9.148;2023-02-28T11:02:44;25.10;40.00
62589;DHT22;58504;48.770;9.148;2023-02-28T11:05:28;25.10;40.00
62589;DHT22;58504;48.770;9.148;2023-02-28T11:07:57;25.10;39.90
62589;DHT22;58504;48.770;9.148;2023-02-28T11:10:28;25.10;39.90
62589;DHT22;58504;48.770;9.148;2023-02-28T11:12:58;25.10;40.40
62589;DHT22;58504;48.770;9.148;2023-02-28T11:15:27;25.20;39.90
62589;DHT22;58504;48.770;9.148;2023-02-28T11:17:56;25.20;39.80
62589;DHT22;58504;48.770;9.148;2023-02-28T11:20:27;25.20;39.80
62589;DHT22;58504;48.770;9.148;2023-02-28T11:22:55;25.30;39.70
62589;DHT22;58504;48.770;9.148;2023-02-28T11:25:25;25.30;39.50
62589;DHT22;58504;48.770;9.148;2023-02-28T11:27:54;25.50;39.50
62589;DHT22;58504;48.770;9.148;2023-02-28T11:30:31;25.50;39.10
62589;DHT22;58504;48.770;9.148;2023-02-28T11:32:59;25.50;39.10
62589;DHT22;58504;48.770;9.148;2023-02-28T11:35:31;25.50;39.10
62589;DHT22;58504;48.770;9.148;2023-02-28T11:38:00;25.50;39.10
62589;DHT22;58504;48.770;9.148;2023-02-28T11:40:33;25.40;39.00
62589;DHT22;58504;48.770;9.148;2023-02-28T11:43:12;25.40;39.10
62589;DHT22;58504;48.770;9.148;2023-02-28T11:45:52;25.30;39.20
62589;DHT22;58504;48.770;9.148;2023-02-28T11:48:22;25.30;39.20
62589;DHT22;58504;48.770;9.148;2023-02-28T11:51:03;25.20;39.20
62589;DHT22;58504;48.770;9.148;2023-02-28T11:53:45;25.10;39.20
62589;DHT22;58504;48.770;9.148;2023-02-28T11:56:22;24.90;39.40
62589;DHT22;58504;48.770;9.148;2023-02-28T11:58:55;24.80;39.30
62589;DHT22;58504;48.770;9.148;2023-02-28T12:01:35;24.70;39.20
62589;DHT22;58504;48.770;9.148;2023-02-28T12:04:16;24.60;39.20
62589;DHT22;58504;48.770;9.148;2023-02-28T12:06:49;24.50;39.50
62589;DHT22;58504;48.770;9.148;2023-02-28T12:09:36;24.50;39.50
62589;DHT22;58504;48.770;9.148;2023-02-28T12:12:10;24.50;39.40
62589;DHT22;58504;48.770;9.148;2023-02-28T12:14:53;24.50;39.80
62589;DHT22;58504;48.770;9.148;2023-02-28T12:17:34;24.60;39.80
62589;DHT22;58504;48.770;9.148;2023-02-28T12:20:13;24.80;39.70
62589;DHT22;58504;48.770;9.148;2023-02-28T12:22:50;25.00;39.20
62589;DHT22;58504;48.770;9.148;2023-02-28T12:25:39;25.30;38.80
62589;DHT22;58504;48.770;9.148;2023-02-28T12:28:14;25.50;38.50
62589;DHT22;58504;48.770;9.148;2023-02-28T12:30:49;25.70;38.00
62589;DHT22;58504;48.770;9.148;2023-02-28T12:33:21;25.80;37.80
62589;DHT22;58504;48.770;9.148;2023-02-28T12:35:52;25.80;37.70
62589;DHT22;58504;48.770;9.148;2023-02-28T12:38:25;25.70;37.80
62589;DHT22;58504;48.770;9.148;2023-02-28T12:40:56;25.60;38.10
62589;DHT22;58504;48.770;9.148;2023-02-28T12:43:28;25.50;38.20
62589;DHT22;58504;48.770;9.148;2023-02-28T12:45:59;25.40;38.30
62589;DHT22;58504;48.770;9.148;2023-02-28T12:48:39;25.30;38.50
62589;DHT22;58504;48.770;9.148;2023-02-28T12:51:08;25.20;39.10
62589;DHT22;58504;48.770;9.148;2023-02-28T12:53:45;25.10;39.20
62589;DHT22;58504;48.770;9.148;2023-02-28T12:56:20;25.10;39.50
62589;DHT22;58504;48.770;9.148;2023-02-28T12:58:50;25.00;39.30
62589;DHT22;58504;48.770;9.148;2023-02-28T13:01:33;25.00;39.00
62589;DHT22;58504;48.770;9.148;2023-02-28T13:10:04;24.80;39.20
62589;DHT22;58504;48.770;9.148;2023-02-28T13:12:32;24.80;39.40
62589;DHT22;58504;48.770;9.148;2023-02-28T13:15:06;24.80;39.50
62589;DHT22;58504;48.770;9.148;2023-02-28T13:17:39;25.00;39.20
62589;DHT22;58504;48.770;9.148;2023-02-28T13:20:16;25.30;38.90
62589;DHT22;58504;48.770;9.148;2023-02-28T13:22:45;25.60;38.30
62589;DHT22;58504;48.770;9.148;2023-02-28T13:31:41;26.30;37.10
62589;DHT22;58504;48.770;9.148;2023-02-28T13:34:29;26.20;37.10
62589;DHT22;58504;48.770;9.148;2023-02-28T13:37:34;26.10;37.30
62589;DHT22;58504;48.770;9.148;2023-02-28T13:40:27;25.90;37.60
62589;DHT22;58504;48.770;9.148;2023-02-28T13:42:54;25.80;37.90
62589;DHT22;58504;48.770;9.148;2023-02-28T13:45:26;25.70;38.10
62589;DHT22;58504;48.770;9.148;2023-02-28T13:47:55;25.70;38.50
62589;DHT22;58504;48.770;9.148;2023-02-28T13:50:36;25.70;38.40
62589;DHT22;58504;48.770;9.148;2023-02-28T13:56:26;25.70;38.70
62589;DHT22;58504;48.770;9.148;2023-02-28T13:58:59;25.90;38.30
62589;DHT22;58504;48.770;9.148;2023-02-28T14:01:42;26.20;37.70
62589;DHT22;58504;48.770;9.148;2023-02-28T14:04:42;27.70;35.80
62589;DHT22;58504;48.770;9.148;2023-02-28T14:07:19;30.70;32.40
62589;DHT22;58504;48.770;9.148;2023-02-28T14:09:55;32.40;25.70
62589;DHT22;58504;48.770;9.148;2023-02-28T14:12:58;33.20;21.50
62589;DHT22;58504;48.770;9.148;2023-02-28T14:15:39;32.70;22.10
62589;DHT22;58504;48.770;9.148;2023-02-28T14:18:22;33.20;23.00
62589;DHT22;58504;48.770;9.148;2023-02-28T14:20:53;33.60;23.10
62589;DHT22;58504;48.770;9.148;2023-02-28T14:23:46;33.80;21.80
62589;DHT22;58504;48.770;9.148;2023-02-28T14:26:29;33.30;21.20
62589;DHT22;58504;48.770;9.148;2023-02-28T14:29:15;33.00;23.80
62589;DHT22;58504;48.770;9.148;2023-02-28T14:31:49;32.60;24.60
62589;DHT22;58504;48.770;9.148;2023-02-28T14:34:35;32.00;25.40
62589;DHT22;58504;48.770;9.148;2023-02-28T14:37:04;31.10;26.50
62589;DHT22;58504;48.770;9.148;2023-02-28T14:39:34;30.00;27.50
62589;DHT22;58504;48.770;9.148;2023-02-28T14:42:02;29.10;28.50
62589;DHT22;58504;48.770;9.148;2023-02-28T14:44:30;28.50;29.50
62589;DHT22;58504;48.770;9.148;2023-02-28T14:46:59;28.10;30.20
62589;DHT22;58504;48.770;9.148;2023-02-28T14:49:31;27.80;31.10
62589;DHT22;58504;48.770;9.148;2023-02-28T14:52:05;27.40;31.90
62589;DHT22;58504;48.770;9.148;2023-02-28T14:54:36;27.10;32.50
62589;DHT22;58504;48.770;9.148;2023-02-28T14:57:04;26.80;33.10
62589;DHT22;58504;48.770;9.148;2023-02-28T14:59:33;26.50;33.70
62589;DHT22;58504;48.770;9.148;2023-02-28T15:02:17;26.20;34.30
62589;DHT22;58504;48.770;9.148;2023-02-28T15:04:53;25.90;35.00
62589;DHT22;58504;48.770;9.148;2023-02-28T15:07:21;25.60;35.60
62589;DHT22;58504;48.770;9.148;2023-02-28T15:10:08;25.40;36.00
62589;DHT22;58504;48.770;9.148;2023-02-28T15:12:36;25.20;36.60
62589;DHT22;58504;48.770;9.148;2023-02-28T15:15:04;25.10;36.90
62589;DHT22;58504;48.770;9.148;2023-02-28T15:17:32;25.20;37.00
62589;DHT22;58504;48.770;9.148;2023-02-28T15:20:00;25.30;36.70
62589;DHT22;58504;48.770;9.148;2023-02-28T15:22:31;25.60;36.70
62589;DHT22;58504;48.770;9.148;2023-02-28T15:25:02;25.70;36.40
62589;DHT22;58504;48.770;9.148;2023-02-28T15:27:33;26.00;36.20
62589;DHT22;58504;48.770;9.148;2023-02-28T15:30:07;26.10;36.20
62589;DHT22;58504;48.770;9.148;2023-02-28T15:32:35;26.10;36.20
62589;DHT22;58504;48.770;9.148;2023-02-28T15:35:19;26.10;36.20
62589;DHT22;58504;48.770;9.148;2023-02-28T15:37:47;26.10;36.40
62589;DHT22;58504;48.770;9.148;2023-02-28T15:40:17;26.00;36.50
62589;DHT22;58504;48.770;9.148;2023-02-28T15:43:00;25.80;36.80
62589;DHT22;58504;48.770;9.148;2023-02-28T15:45:33;25.70;37.20
62589;DHT22;58504;48.770;9.148;2023-02-28T15:48:03;25.60;37.50
62589;DHT22;58504;48.770;9.148;2023-02-28T15:50:29;25.50;37.80
62589;DHT22;58504;48.770;9.148;2023-02-28T15:52:56;25.30;38.10
62589;DHT22;58504;48.770;9.148;2023-02-28T15:55:26;25.20;38.40
62589;DHT22;58504;48.770;9.148;2023-02-28T15:57:56;25.10;38.70
62589;DHT22;58504;48.770;9.148;2023-02-28T16:00:30;25.00;38.40
62589;DHT22;58504;48.770;9.148;2023-02-28T16:02:59;24.90;38.70
62589;DHT22;58504;48.770;9.148;2023-02-28T16:05:27;24.90;39.10
62589;DHT22;58504;48.770;9.148;2023-02-28T16:07:58;25.00;39.00
62589;DHT22;58504;48.770;9.148;2023-02-28T16:10:26;25.10;38.50
62589;DHT22;58504;48.770;9.148;2023-02-28T16:12:54;25.30;38.30
62589;DHT22;58504;48.770;9.148;2023-02-28T16:15:25;25.50;37.90
62589;DHT22;58504;48.770;9.148;2023-02-28T16:17:53;25.70;37.60
62589;DHT22;58504;48.770;9.148;2023-02-28T16:20:22;25.80;37.20